Apellis — 3FJT2 — position and weather

sailwx.info

Track history (hours):
 
Tides and Currents Weather Stations Pressure Air Temp Water Temp Dewpoint Dewpoint Depression Visibility Wind Speed Wind Dir Waves Ship Positions

Apellis

Last reported at 2014-Aug-29 01:17 UTC. Time now 2014-Aug-29 14:18 UTC.
Position N 53°32' E 003°51'.

Length 178 m; draft 6 m.

Type: Cargo ship. MMSI: 353847000.

Date/timePositionNaut miles runAvg speedWind from/ knotsBaromVisibWave heightAir tempDewpointWater temp
2014-Aug-29 01:17N 53°32' E 003°51'4610.9
2014-Aug-28 21:05N 52°51' E 003°19'611.2
2014-Aug-28 20:32N 52°45' E 003°18'6212.3
2014-Aug-28 15:32N 51°48' E 002°38'1613.9
2014-Aug-28 14:22N 51°36' E 002°21'1214.0
2014-Aug-28 13:29N 51°26' E 002°08'1313.7
2014-Aug-28 12:33N 51°17' E 001°54'1313.1
2014-Aug-28 11:33N 51°07' E 001°41'1211.9
2014-Aug-28 10:33N 50°57' E 001°30'2310.2
2014-Aug-28 08:18N 50°37' E 001°13'810.8
2014-Aug-28 07:32N 50°32' E 001°03'1010.6
2014-Aug-28 06:33N 50°27' E 000°48'1210.8
2014-Aug-28 05:24N 50°23' E 000°30'48 9.8
2014-Aug-28 00:28N 49°42' W 000°10'1112.3
2014-Aug-27 23:34N 49°31' W 000°11'1110.8
2014-Aug-27 22:33N 49°26' E 000°04'1010.1
2014-Aug-27 21:31N 49°26' E 000°20'8 6.8
2014-Aug-27 20:23N 49°29' E 000°31'  
Track history (hours):
 
Tides and Currents Weather Stations Pressure Air Temp Water Temp Dewpoint Dewpoint Depression Visibility Wind Speed Wind Dir Waves Ship Positions

Apellis

Last reported at 2014-Aug-29 01:17 UTC. Time now 2014-Aug-29 14:18 UTC.
Position N 53°32' E 003°51'.

Length 178 m; draft 6 m.

Type: Cargo ship. MMSI: 353847000.

Date/timePositionNaut miles runAvg speedWind from/ knotsBaromVisibWave heightAir tempDewpointWater temp
2014-Aug-29 01:17N 53°32' E 003°51'4610.9
2014-Aug-28 21:05N 52°51' E 003°19'611.2
2014-Aug-28 20:32N 52°45' E 003°18'6212.3
2014-Aug-28 15:32N 51°48' E 002°38'1613.9
2014-Aug-28 14:22N 51°36' E 002°21'1214.0
2014-Aug-28 13:29N 51°26' E 002°08'1313.7
2014-Aug-28 12:33N 51°17' E 001°54'1313.1
2014-Aug-28 11:33N 51°07' E 001°41'1211.9
2014-Aug-28 10:33N 50°57' E 001°30'2310.2
2014-Aug-28 08:18N 50°37' E 001°13'810.8
2014-Aug-28 07:32N 50°32' E 001°03'1010.6
2014-Aug-28 06:33N 50°27' E 000°48'1210.8
2014-Aug-28 05:24N 50°23' E 000°30'48 9.8
2014-Aug-28 00:28N 49°42' W 000°10'1112.3
2014-Aug-27 23:34N 49°31' W 000°11'1110.8
2014-Aug-27 22:33N 49°26' E 000°04'1010.1
2014-Aug-27 21:31N 49°26' E 000°20'8 6.8
2014-Aug-27 20:23N 49°29' E 000°31'  

Dump ship's entire track history